sensor_id;sensor_type;location;lat;lon;timestamp;P1;durP1;ratioP1;P2;durP2;ratioP2
8421;SDS011;4248;48.196;10.924;2023-01-23T00:00:29;24.27;;;14.37;;
8421;SDS011;4248;48.196;10.924;2023-01-23T00:02:55;25.55;;;14.18;;
8421;SDS011;4248;48.196;10.924;2023-01-23T00:05:21;30.37;;;15.30;;
8421;SDS011;4248;48.196;10.924;2023-01-23T00:07:47;27.10;;;14.60;;
8421;SDS011;4248;48.196;10.924;2023-01-23T00:10:13;25.93;;;15.53;;
8421;SDS011;4248;48.196;10.924;2023-01-23T00:12:44;30.25;;;15.90;;
8421;SDS011;4248;48.196;10.924;2023-01-23T00:15:13;30.33;;;16.58;;
8421;SDS011;4248;48.196;10.924;2023-01-23T00:17:39;29.38;;;15.43;;
8421;SDS011;4248;48.196;10.924;2023-01-23T00:20:06;35.28;;;16.33;;
8421;SDS011;4248;48.196;10.924;2023-01-23T00:22:33;29.85;;;15.95;;
8421;SDS011;4248;48.196;10.924;2023-01-23T00:24:58;28.73;;;14.87;;
8421;SDS011;4248;48.196;10.924;2023-01-23T00:27:24;31.23;;;16.70;;
8421;SDS011;4248;48.196;10.924;2023-01-23T00:29:52;36.13;;;16.43;;
8421;SDS011;4248;48.196;10.924;2023-01-23T00:32:18;27.60;;;15.13;;
8421;SDS011;4248;48.196;10.924;2023-01-23T00:34:45;28.60;;;16.08;;
8421;SDS011;4248;48.196;10.924;2023-01-23T00:37:11;32.47;;;16.38;;
8421;SDS011;4248;48.196;10.924;2023-01-23T00:39:37;33.05;;;15.48;;
8421;SDS011;4248;48.196;10.924;2023-01-23T00:42:03;34.73;;;17.73;;
8421;SDS011;4248;48.196;10.924;2023-01-23T00:44:29;36.17;;;18.25;;
8421;SDS011;4248;48.196;10.924;2023-01-23T00:46:55;39.13;;;18.30;;
8421;SDS011;4248;48.196;10.924;2023-01-23T00:49:22;35.00;;;18.40;;
8421;SDS011;4248;48.196;10.924;2023-01-23T00:51:47;37.50;;;18.50;;
8421;SDS011;4248;48.196;10.924;2023-01-23T00:54:14;42.85;;;19.73;;
8421;SDS011;4248;48.196;10.924;2023-01-23T00:56:40;36.40;;;18.25;;
8421;SDS011;4248;48.196;10.924;2023-01-23T00:59:06;37.63;;;17.47;;
8421;SDS011;4248;48.196;10.924;2023-01-23T01:01:31;35.80;;;17.73;;
8421;SDS011;4248;48.196;10.924;2023-01-23T01:03:57;37.00;;;17.60;;
8421;SDS011;4248;48.196;10.924;2023-01-23T01:06:24;38.13;;;17.40;;
8421;SDS011;4248;48.196;10.924;2023-01-23T01:08:50;38.42;;;18.33;;
8421;SDS011;4248;48.196;10.924;2023-01-23T01:11:16;41.20;;;19.13;;
8421;SDS011;4248;48.196;10.924;2023-01-23T01:13:42;36.05;;;18.92;;
8421;SDS011;4248;48.196;10.924;2023-01-23T01:16:08;32.17;;;16.70;;
8421;SDS011;4248;48.196;10.924;2023-01-23T01:18:35;36.33;;;17.75;;
8421;SDS011;4248;48.196;10.924;2023-01-23T01:21:04;42.83;;;20.40;;
8421;SDS011;4248;48.196;10.924;2023-01-23T01:23:31;39.30;;;19.10;;
8421;SDS011;4248;48.196;10.924;2023-01-23T01:25:58;41.30;;;18.93;;
8421;SDS011;4248;48.196;10.924;2023-01-23T01:28:24;40.42;;;18.42;;
8421;SDS011;4248;48.196;10.924;2023-01-23T01:30:52;37.05;;;18.58;;
8421;SDS011;4248;48.196;10.924;2023-01-23T01:33:17;36.37;;;17.30;;
8421;SDS011;4248;48.196;10.924;2023-01-23T01:35:43;38.00;;;18.80;;
8421;SDS011;4248;48.196;10.924;2023-01-23T01:38:08;37.00;;;19.10;;
8421;SDS011;4248;48.196;10.924;2023-01-23T01:40:34;39.50;;;18.27;;
8421;SDS011;4248;48.196;10.924;2023-01-23T01:43:05;29.55;;;16.27;;
8421;SDS011;4248;48.196;10.924;2023-01-23T01:48:32;32.13;;;16.75;;
8421;SDS011;4248;48.196;10.924;2023-01-23T01:50:59;35.53;;;17.50;;
8421;SDS011;4248;48.196;10.924;2023-01-23T01:53:28;31.70;;;17.58;;
8421;SDS011;4248;48.196;10.924;2023-01-23T01:55:55;36.65;;;17.05;;
8421;SDS011;4248;48.196;10.924;2023-01-23T01:58:21;31.98;;;16.33;;
8421;SDS011;4248;48.196;10.924;2023-01-23T02:00:47;32.75;;;17.63;;
8421;SDS011;4248;48.196;10.924;2023-01-23T02:03:13;36.50;;;17.00;;
8421;SDS011;4248;48.196;10.924;2023-01-23T02:05:44;31.58;;;16.30;;
8421;SDS011;4248;48.196;10.924;2023-01-23T02:11:04;31.20;;;16.55;;
8421;SDS011;4248;48.196;10.924;2023-01-23T02:13:31;36.05;;;16.38;;
8421;SDS011;4248;48.196;10.924;2023-01-23T02:16:05;34.60;;;17.65;;
8421;SDS011;4248;48.196;10.924;2023-01-23T02:18:33;32.58;;;17.63;;
8421;SDS011;4248;48.196;10.924;2023-01-23T02:21:02;30.70;;;16.23;;
8421;SDS011;4248;48.196;10.924;2023-01-23T02:26:04;37.40;;;17.48;;
8421;SDS011;4248;48.196;10.924;2023-01-23T02:28:37;27.27;;;15.18;;
8421;SDS011;4248;48.196;10.924;2023-01-23T02:31:05;36.30;;;16.55;;
8421;SDS011;4248;48.196;10.924;2023-01-23T02:35:57;34.87;;;17.60;;
8421;SDS011;4248;48.196;10.924;2023-01-23T02:38:24;35.38;;;17.35;;
8421;SDS011;4248;48.196;10.924;2023-01-23T02:40:51;31.02;;;16.13;;
8421;SDS011;4248;48.196;10.924;2023-01-23T02:43:19;32.38;;;16.58;;
8421;SDS011;4248;48.196;10.924;2023-01-23T02:45:49;37.80;;;18.45;;
8421;SDS011;4248;48.196;10.924;2023-01-23T02:48:16;37.15;;;17.35;;
8421;SDS011;4248;48.196;10.924;2023-01-23T02:50:41;42.93;;;19.93;;
8421;SDS011;4248;48.196;10.924;2023-01-23T02:53:10;37.80;;;19.70;;
8421;SDS011;4248;48.196;10.924;2023-01-23T02:55:36;43.60;;;17.63;;
8421;SDS011;4248;48.196;10.924;2023-01-23T02:58:06;38.42;;;18.30;;
8421;SDS011;4248;48.196;10.924;2023-01-23T03:00:50;47.83;;;19.38;;
8421;SDS011;4248;48.196;10.924;2023-01-23T03:03:16;46.70;;;19.50;;
8421;SDS011;4248;48.196;10.924;2023-01-23T03:05:42;43.40;;;19.55;;
8421;SDS011;4248;48.196;10.924;2023-01-23T03:08:08;47.60;;;19.97;;
8421;SDS011;4248;48.196;10.924;2023-01-23T03:10:33;46.53;;;21.07;;
8421;SDS011;4248;48.196;10.924;2023-01-23T03:12:59;44.83;;;19.63;;
8421;SDS011;4248;48.196;10.924;2023-01-23T03:15:31;46.83;;;21.25;;
8421;SDS011;4248;48.196;10.924;2023-01-23T03:18:02;41.58;;;20.35;;
8421;SDS011;4248;48.196;10.924;2023-01-23T03:20:28;44.75;;;20.30;;
8421;SDS011;4248;48.196;10.924;2023-01-23T03:22:54;39.47;;;18.97;;
8421;SDS011;4248;48.196;10.924;2023-01-23T03:25:20;40.85;;;19.70;;
8421;SDS011;4248;48.196;10.924;2023-01-23T03:27:46;38.63;;;19.40;;
8421;SDS011;4248;48.196;10.924;2023-01-23T03:30:13;38.03;;;18.40;;
8421;SDS011;4248;48.196;10.924;2023-01-23T03:32:41;41.10;;;19.90;;
8421;SDS011;4248;48.196;10.924;2023-01-23T03:35:08;46.58;;;20.15;;
8421;SDS011;4248;48.196;10.924;2023-01-23T03:37:34;71.90;;;27.95;;
8421;SDS011;4248;48.196;10.924;2023-01-23T03:40:01;88.55;;;32.55;;
8421;SDS011;4248;48.196;10.924;2023-01-23T03:43:05;48.55;;;20.83;;
8421;SDS011;4248;48.196;10.924;2023-01-23T03:45:31;44.20;;;21.30;;
8421;SDS011;4248;48.196;10.924;2023-01-23T03:47:57;41.97;;;20.77;;
8421;SDS011;4248;48.196;10.924;2023-01-23T03:50:23;39.63;;;17.50;;
8421;SDS011;4248;48.196;10.924;2023-01-23T03:52:49;36.60;;;19.10;;
8421;SDS011;4248;48.196;10.924;2023-01-23T03:55:14;37.20;;;18.60;;
8421;SDS011;4248;48.196;10.924;2023-01-23T03:57:40;40.07;;;17.50;;
8421;SDS011;4248;48.196;10.924;2023-01-23T04:00:06;38.33;;;18.33;;
8421;SDS011;4248;48.196;10.924;2023-01-23T04:02:32;40.88;;;17.20;;
8421;SDS011;4248;48.196;10.924;2023-01-23T04:04:57;41.40;;;20.73;;
8421;SDS011;4248;48.196;10.924;2023-01-23T04:07:23;40.00;;;18.40;;
8421;SDS011;4248;48.196;10.924;2023-01-23T04:09:49;37.87;;;18.13;;
8421;SDS011;4248;48.196;10.924;2023-01-23T04:12:14;39.53;;;18.27;;
8421;SDS011;4248;48.196;10.924;2023-01-23T04:14:40;42.00;;;18.27;;
8421;SDS011;4248;48.196;10.924;2023-01-23T04:17:06;43.17;;;20.70;;
8421;SDS011;4248;48.196;10.924;2023-01-23T04:19:33;47.78;;;20.98;;
8421;SDS011;4248;48.196;10.924;2023-01-23T04:21:59;42.85;;;20.77;;
8421;SDS011;4248;48.196;10.924;2023-01-23T04:24:25;49.37;;;21.67;;
8421;SDS011;4248;48.196;10.924;2023-01-23T04:26:51;44.33;;;21.55;;
8421;SDS011;4248;48.196;10.924;2023-01-23T04:29:17;39.20;;;18.48;;
8421;SDS011;4248;48.196;10.924;2023-01-23T04:31:43;34.67;;;17.43;;
8421;SDS011;4248;48.196;10.924;2023-01-23T04:34:08;37.13;;;19.27;;
8421;SDS011;4248;48.196;10.924;2023-01-23T04:36:34;39.53;;;20.43;;
8421;SDS011;4248;48.196;10.924;2023-01-23T04:39:00;43.47;;;19.70;;
8421;SDS011;4248;48.196;10.924;2023-01-23T04:41:27;38.10;;;19.10;;
8421;SDS011;4248;48.196;10.924;2023-01-23T04:43:53;39.80;;;19.10;;
8421;SDS011;4248;48.196;10.924;2023-01-23T04:46:19;34.77;;;18.07;;
8421;SDS011;4248;48.196;10.924;2023-01-23T04:48:46;38.33;;;18.20;;
8421;SDS011;4248;48.196;10.924;2023-01-23T04:51:11;36.57;;;18.97;;
8421;SDS011;4248;48.196;10.924;2023-01-23T04:53:37;34.03;;;16.70;;
8421;SDS011;4248;48.196;10.924;2023-01-23T04:56:03;33.53;;;17.03;;
8421;SDS011;4248;48.196;10.924;2023-01-23T04:58:29;35.35;;;16.92;;
8421;SDS011;4248;48.196;10.924;2023-01-23T05:01:00;38.23;;;18.43;;
8421;SDS011;4248;48.196;10.924;2023-01-23T05:03:27;34.95;;;18.00;;
8421;SDS011;4248;48.196;10.924;2023-01-23T05:05:52;36.70;;;17.30;;
8421;SDS011;4248;48.196;10.924;2023-01-23T05:08:18;31.43;;;16.80;;
8421;SDS011;4248;48.196;10.924;2023-01-23T05:10:44;34.43;;;16.60;;
8421;SDS011;4248;48.196;10.924;2023-01-23T05:13:09;31.20;;;17.47;;
8421;SDS011;4248;48.196;10.924;2023-01-23T05:15:35;32.13;;;17.27;;
8421;SDS011;4248;48.196;10.924;2023-01-23T05:18:01;38.53;;;17.70;;
8421;SDS011;4248;48.196;10.924;2023-01-23T05:20:26;36.93;;;18.40;;
8421;SDS011;4248;48.196;10.924;2023-01-23T05:22:52;44.30;;;19.83;;
8421;SDS011;4248;48.196;10.924;2023-01-23T05:25:21;39.00;;;18.47;;
8421;SDS011;4248;48.196;10.924;2023-01-23T05:27:49;48.80;;;19.02;;
8421;SDS011;4248;48.196;10.924;2023-01-23T05:30:15;39.70;;;18.57;;
8421;SDS011;4248;48.196;10.924;2023-01-23T05:32:41;35.88;;;18.10;;
8421;SDS011;4248;48.196;10.924;2023-01-23T05:35:07;40.13;;;20.20;;
8421;SDS011;4248;48.196;10.924;2023-01-23T05:37:33;36.95;;;19.23;;
8421;SDS011;4248;48.196;10.924;2023-01-23T05:39:59;43.20;;;20.37;;
8421;SDS011;4248;48.196;10.924;2023-01-23T05:42:25;40.03;;;20.37;;
8421;SDS011;4248;48.196;10.924;2023-01-23T05:44:50;48.28;;;27.20;;
8421;SDS011;4248;48.196;10.924;2023-01-23T05:47:16;48.33;;;22.90;;
8421;SDS011;4248;48.196;10.924;2023-01-23T05:49:41;41.07;;;19.30;;
8421;SDS011;4248;48.196;10.924;2023-01-23T05:52:07;42.43;;;20.70;;
8421;SDS011;4248;48.196;10.924;2023-01-23T05:54:33;42.93;;;20.63;;
8421;SDS011;4248;48.196;10.924;2023-01-23T05:56:59;44.07;;;20.00;;
8421;SDS011;4248;48.196;10.924;2023-01-23T05:59:24;42.77;;;20.17;;
8421;SDS011;4248;48.196;10.924;2023-01-23T06:01:50;42.20;;;19.73;;
8421;SDS011;4248;48.196;10.924;2023-01-23T06:04:15;40.40;;;19.93;;
8421;SDS011;4248;48.196;10.924;2023-01-23T06:06:41;44.80;;;20.00;;
8421;SDS011;4248;48.196;10.924;2023-01-23T06:09:07;44.40;;;20.15;;
8421;SDS011;4248;48.196;10.924;2023-01-23T06:11:33;43.65;;;19.95;;
8421;SDS011;4248;48.196;10.924;2023-01-23T06:13:59;40.67;;;20.13;;
8421;SDS011;4248;48.196;10.924;2023-01-23T06:16:24;41.90;;;20.60;;
8421;SDS011;4248;48.196;10.924;2023-01-23T06:18:50;43.47;;;20.30;;
8421;SDS011;4248;48.196;10.924;2023-01-23T06:21:16;48.30;;;20.90;;
8421;SDS011;4248;48.196;10.924;2023-01-23T06:23:42;46.78;;;20.80;;
8421;SDS011;4248;48.196;10.924;2023-01-23T06:26:11;53.60;;;22.00;;
8421;SDS011;4248;48.196;10.924;2023-01-23T06:28:37;45.90;;;20.42;;
8421;SDS011;4248;48.196;10.924;2023-01-23T06:31:03;52.42;;;22.42;;
8421;SDS011;4248;48.196;10.924;2023-01-23T06:33:30;51.15;;;21.55;;
8421;SDS011;4248;48.196;10.924;2023-01-23T06:35:59;54.35;;;23.67;;
8421;SDS011;4248;48.196;10.924;2023-01-23T06:38:26;56.60;;;23.15;;
8421;SDS011;4248;48.196;10.924;2023-01-23T06:40:53;51.33;;;22.05;;
8421;SDS011;4248;48.196;10.924;2023-01-23T06:43:18;46.90;;;21.43;;
8421;SDS011;4248;48.196;10.924;2023-01-23T06:45:45;46.95;;;21.30;;
8421;SDS011;4248;48.196;10.924;2023-01-23T06:48:11;51.03;;;21.85;;
8421;SDS011;4248;48.196;10.924;2023-01-23T06:50:40;54.58;;;22.70;;
8421;SDS011;4248;48.196;10.924;2023-01-23T06:53:07;46.22;;;21.75;;
8421;SDS011;4248;48.196;10.924;2023-01-23T06:55:36;57.38;;;25.15;;
8421;SDS011;4248;48.196;10.924;2023-01-23T06:58:01;55.20;;;22.00;;
8421;SDS011;4248;48.196;10.924;2023-01-23T07:00:27;52.07;;;23.07;;
8421;SDS011;4248;48.196;10.924;2023-01-23T07:02:53;62.00;;;29.77;;
8421;SDS011;4248;48.196;10.924;2023-01-23T07:05:22;59.10;;;26.20;;
8421;SDS011;4248;48.196;10.924;2023-01-23T07:07:49;53.37;;;23.70;;
8421;SDS011;4248;48.196;10.924;2023-01-23T07:10:15;48.97;;;20.63;;
8421;SDS011;4248;48.196;10.924;2023-01-23T07:12:41;56.88;;;27.70;;
8421;SDS011;4248;48.196;10.924;2023-01-23T07:15:07;47.80;;;23.37;;
8421;SDS011;4248;48.196;10.924;2023-01-23T07:17:33;59.60;;;26.80;;
8421;SDS011;4248;48.196;10.924;2023-01-23T07:19:59;53.47;;;22.83;;
8421;SDS011;4248;48.196;10.924;2023-01-23T07:22:24;47.70;;;23.00;;
8421;SDS011;4248;48.196;10.924;2023-01-23T07:24:50;49.20;;;23.87;;
8421;SDS011;4248;48.196;10.924;2023-01-23T07:27:16;47.90;;;20.37;;
8421;SDS011;4248;48.196;10.924;2023-01-23T07:29:41;50.80;;;21.83;;
8421;SDS011;4248;48.196;10.924;2023-01-23T07:32:07;43.70;;;21.10;;
8421;SDS011;4248;48.196;10.924;2023-01-23T07:34:33;44.10;;;22.40;;
8421;SDS011;4248;48.196;10.924;2023-01-23T07:36:58;51.10;;;22.87;;
8421;SDS011;4248;48.196;10.924;2023-01-23T07:39:24;48.30;;;21.30;;
8421;SDS011;4248;48.196;10.924;2023-01-23T07:41:50;42.70;;;21.20;;
8421;SDS011;4248;48.196;10.924;2023-01-23T07:44:16;47.23;;;21.40;;
8421;SDS011;4248;48.196;10.924;2023-01-23T07:46:44;44.83;;;20.90;;
8421;SDS011;4248;48.196;10.924;2023-01-23T07:49:10;47.75;;;22.10;;
8421;SDS011;4248;48.196;10.924;2023-01-23T07:51:36;48.28;;;21.73;;
8421;SDS011;4248;48.196;10.924;2023-01-23T07:54:02;51.70;;;25.45;;
8421;SDS011;4248;48.196;10.924;2023-01-23T07:56:28;43.95;;;23.05;;
8421;SDS011;4248;48.196;10.924;2023-01-23T07:58:54;47.40;;;21.83;;
8421;SDS011;4248;48.196;10.924;2023-01-23T08:01:19;42.03;;;21.10;;
8421;SDS011;4248;48.196;10.924;2023-01-23T08:03:45;48.50;;;21.47;;
8421;SDS011;4248;48.196;10.924;2023-01-23T08:06:11;39.50;;;19.80;;
8421;SDS011;4248;48.196;10.924;2023-01-23T08:08:37;39.17;;;18.77;;
8421;SDS011;4248;48.196;10.924;2023-01-23T08:11:03;34.13;;;16.87;;
8421;SDS011;4248;48.196;10.924;2023-01-23T08:13:30;32.97;;;17.55;;
8421;SDS011;4248;48.196;10.924;2023-01-23T08:15:56;31.83;;;16.03;;
8421;SDS011;4248;48.196;10.924;2023-01-23T08:18:23;34.05;;;18.00;;
8421;SDS011;4248;48.196;10.924;2023-01-23T08:20:53;33.40;;;16.98;;
8421;SDS011;4248;48.196;10.924;2023-01-23T08:23:20;33.60;;;17.63;;
8421;SDS011;4248;48.196;10.924;2023-01-23T08:25:51;36.55;;;16.90;;
8421;SDS011;4248;48.196;10.924;2023-01-23T08:28:21;33.40;;;16.98;;
8421;SDS011;4248;48.196;10.924;2023-01-23T08:30:48;28.13;;;15.40;;
8421;SDS011;4248;48.196;10.924;2023-01-23T08:33:14;33.30;;;15.90;;
8421;SDS011;4248;48.196;10.924;2023-01-23T08:35:47;30.95;;;15.60;;
8421;SDS011;4248;48.196;10.924;2023-01-23T08:38:17;30.77;;;15.38;;
8421;SDS011;4248;48.196;10.924;2023-01-23T08:40:44;33.50;;;14.20;;
8421;SDS011;4248;48.196;10.924;2023-01-23T08:43:10;27.83;;;14.15;;
8421;SDS011;4248;48.196;10.924;2023-01-23T08:45:38;24.98;;;12.77;;
8421;SDS011;4248;48.196;10.924;2023-01-23T08:48:04;27.67;;;12.73;;
8421;SDS011;4248;48.196;10.924;2023-01-23T08:50:30;24.90;;;11.98;;
8421;SDS011;4248;48.196;10.924;2023-01-23T08:52:56;23.97;;;12.23;;
8421;SDS011;4248;48.196;10.924;2023-01-23T08:55:22;26.37;;;12.30;;
8421;SDS011;4248;48.196;10.924;2023-01-23T08:57:47;22.00;;;11.63;;
8421;SDS011;4248;48.196;10.924;2023-01-23T09:00:13;19.97;;;11.23;;
8421;SDS011;4248;48.196;10.924;2023-01-23T09:02:39;21.83;;;10.40;;
8421;SDS011;4248;48.196;10.924;2023-01-23T09:05:04;18.73;;;10.10;;
8421;SDS011;4248;48.196;10.924;2023-01-23T09:07:30;22.75;;;11.93;;
8421;SDS011;4248;48.196;10.924;2023-01-23T09:09:56;21.47;;;11.57;;
8421;SDS011;4248;48.196;10.924;2023-01-23T09:12:21;21.23;;;11.80;;
8421;SDS011;4248;48.196;10.924;2023-01-23T09:14:47;20.27;;;11.17;;
8421;SDS011;4248;48.196;10.924;2023-01-23T09:17:12;22.83;;;12.70;;
8421;SDS011;4248;48.196;10.924;2023-01-23T09:19:38;21.90;;;12.87;;
8421;SDS011;4248;48.196;10.924;2023-01-23T09:22:04;27.30;;;12.07;;
8421;SDS011;4248;48.196;10.924;2023-01-23T09:24:29;22.97;;;12.20;;
8421;SDS011;4248;48.196;10.924;2023-01-23T09:26:55;23.93;;;12.57;;
8421;SDS011;4248;48.196;10.924;2023-01-23T09:29:20;25.77;;;11.67;;
8421;SDS011;4248;48.196;10.924;2023-01-23T09:31:46;22.53;;;11.07;;
8421;SDS011;4248;48.196;10.924;2023-01-23T09:34:11;29.97;;;12.23;;
8421;SDS011;4248;48.196;10.924;2023-01-23T09:36:37;21.97;;;12.20;;
8421;SDS011;4248;48.196;10.924;2023-01-23T09:39:03;21.07;;;10.53;;
8421;SDS011;4248;48.196;10.924;2023-01-23T09:41:29;23.30;;;12.35;;
8421;SDS011;4248;48.196;10.924;2023-01-23T09:43:59;24.40;;;13.23;;
8421;SDS011;4248;48.196;10.924;2023-01-23T09:49:39;26.70;;;14.90;;
8421;SDS011;4248;48.196;10.924;2023-01-23T09:52:13;22.52;;;12.90;;
8421;SDS011;4248;48.196;10.924;2023-01-23T09:54:46;25.95;;;12.77;;
8421;SDS011;4248;48.196;10.924;2023-01-23T10:00:19;22.90;;;13.18;;
8421;SDS011;4248;48.196;10.924;2023-01-23T10:02:49;26.63;;;12.70;;
8421;SDS011;4248;48.196;10.924;2023-01-23T10:05:17;27.35;;;13.18;;
8421;SDS011;4248;48.196;10.924;2023-01-23T10:11:02;25.48;;;11.30;;
8421;SDS011;4248;48.196;10.924;2023-01-23T10:16:36;27.17;;;12.38;;
8421;SDS011;4248;48.196;10.924;2023-01-23T10:19:33;23.35;;;13.90;;
8421;SDS011;4248;48.196;10.924;2023-01-23T10:25:06;26.60;;;12.90;;
8421;SDS011;4248;48.196;10.924;2023-01-23T10:27:41;25.58;;;12.82;;
8421;SDS011;4248;48.196;10.924;2023-01-23T10:30:20;24.40;;;13.30;;
8421;SDS011;4248;48.196;10.924;2023-01-23T10:32:51;29.52;;;13.45;;
8421;SDS011;4248;48.196;10.924;2023-01-23T10:38:16;28.50;;;12.93;;
8421;SDS011;4248;48.196;10.924;2023-01-23T10:40:47;27.98;;;13.35;;
8421;SDS011;4248;48.196;10.924;2023-01-23T10:43:32;23.25;;;11.48;;
8421;SDS011;4248;48.196;10.924;2023-01-23T10:45:57;28.90;;;15.80;;
8421;SDS011;4248;48.196;10.924;2023-01-23T10:56:45;24.45;;;12.55;;
8421;SDS011;4248;48.196;10.924;2023-01-23T10:59:19;25.40;;;11.65;;
8421;SDS011;4248;48.196;10.924;2023-01-23T11:04:37;24.48;;;12.48;;
8421;SDS011;4248;48.196;10.924;2023-01-23T11:09:30;24.87;;;12.50;;
8421;SDS011;4248;48.196;10.924;2023-01-23T11:12:12;26.23;;;12.93;;
8421;SDS011;4248;48.196;10.924;2023-01-23T11:14:41;21.40;;;11.45;;
8421;SDS011;4248;48.196;10.924;2023-01-23T11:19:50;27.02;;;13.90;;
8421;SDS011;4248;48.196;10.924;2023-01-23T11:25:00;24.05;;;13.18;;
8421;SDS011;4248;48.196;10.924;2023-01-23T11:28:00;22.90;;;12.45;;
8421;SDS011;4248;48.196;10.924;2023-01-23T11:35:56;24.77;;;13.07;;
8421;SDS011;4248;48.196;10.924;2023-01-23T11:38:27;24.23;;;12.05;;
8421;SDS011;4248;48.196;10.924;2023-01-23T11:41:08;26.73;;;12.98;;
8421;SDS011;4248;48.196;10.924;2023-01-23T11:43:36;25.60;;;12.25;;
8421;SDS011;4248;48.196;10.924;2023-01-23T11:53:53;29.00;;;14.30;;
8421;SDS011;4248;48.196;10.924;2023-01-23T12:01:32;27.40;;;13.88;;
8421;SDS011;4248;48.196;10.924;2023-01-23T12:04:11;33.65;;;16.23;;
8421;SDS011;4248;48.196;10.924;2023-01-23T12:09:31;33.05;;;17.75;;
8421;SDS011;4248;48.196;10.924;2023-01-23T12:20:24;28.80;;;13.93;;
8421;SDS011;4248;48.196;10.924;2023-01-23T12:25:39;27.50;;;13.60;;
8421;SDS011;4248;48.196;10.924;2023-01-23T12:33:55;29.17;;;16.40;;
8421;SDS011;4248;48.196;10.924;2023-01-23T12:36:47;27.17;;;13.53;;
8421;SDS011;4248;48.196;10.924;2023-01-23T12:42:31;36.03;;;16.35;;
8421;SDS011;4248;48.196;10.924;2023-01-23T12:50:42;31.25;;;14.65;;
8421;SDS011;4248;48.196;10.924;2023-01-23T12:53:18;25.90;;;12.63;;
8421;SDS011;4248;48.196;10.924;2023-01-23T12:56:29;27.13;;;13.55;;
8421;SDS011;4248;48.196;10.924;2023-01-23T12:58:36;22.10;;;12.02;;
8421;SDS011;4248;48.196;10.924;2023-01-23T13:01:36;26.40;;;13.43;;
8421;SDS011;4248;48.196;10.924;2023-01-23T13:12:37;25.00;;;13.60;;
8421;SDS011;4248;48.196;10.924;2023-01-23T13:17:42;28.85;;;16.75;;
8421;SDS011;4248;48.196;10.924;2023-01-23T13:23:25;24.15;;;14.07;;
8421;SDS011;4248;48.196;10.924;2023-01-23T13:28:43;22.15;;;12.77;;
8421;SDS011;4248;48.196;10.924;2023-01-23T13:36:40;25.92;;;14.13;;
8421;SDS011;4248;48.196;10.924;2023-01-23T13:41:42;26.98;;;14.02;;
8421;SDS011;4248;48.196;10.924;2023-01-23T13:49:24;24.55;;;13.15;;
8421;SDS011;4248;48.196;10.924;2023-01-23T13:55:28;28.35;;;13.85;;
8421;SDS011;4248;48.196;10.924;2023-01-23T13:58:23;24.90;;;13.73;;
8421;SDS011;4248;48.196;10.924;2023-01-23T14:00:54;24.92;;;13.45;;
8421;SDS011;4248;48.196;10.924;2023-01-23T14:03:53;26.90;;;14.07;;
8421;SDS011;4248;48.196;10.924;2023-01-23T14:06:42;27.67;;;13.70;;
8421;SDS011;4248;48.196;10.924;2023-01-23T14:09:17;28.30;;;14.70;;
8421;SDS011;4248;48.196;10.924;2023-01-23T14:11:54;27.20;;;13.85;;
8421;SDS011;4248;48.196;10.924;2023-01-23T14:14:26;30.25;;;13.95;;
8421;SDS011;4248;48.196;10.924;2023-01-23T14:17:16;24.25;;;12.95;;
8421;SDS011;4248;48.196;10.924;2023-01-23T14:22:27;28.20;;;14.70;;
8421;SDS011;4248;48.196;10.924;2023-01-23T14:24:54;34.17;;;17.20;;
8421;SDS011;4248;48.196;10.924;2023-01-23T14:29:57;27.80;;;12.93;;
8421;SDS011;4248;48.196;10.924;2023-01-23T14:32:23;27.88;;;14.55;;
8421;SDS011;4248;48.196;10.924;2023-01-23T14:34:50;28.50;;;13.60;;
8421;SDS011;4248;48.196;10.924;2023-01-23T14:37:15;26.27;;;13.87;;
8421;SDS011;4248;48.196;10.924;2023-01-23T14:39:42;28.93;;;14.90;;
8421;SDS011;4248;48.196;10.924;2023-01-23T14:42:30;29.23;;;14.20;;
8421;SDS011;4248;48.196;10.924;2023-01-23T14:44:56;26.70;;;13.38;;
8421;SDS011;4248;48.196;10.924;2023-01-23T14:47:27;25.90;;;13.63;;
8421;SDS011;4248;48.196;10.924;2023-01-23T14:49:58;28.65;;;14.02;;
8421;SDS011;4248;48.196;10.924;2023-01-23T14:52:25;31.58;;;14.68;;
8421;SDS011;4248;48.196;10.924;2023-01-23T14:54:53;33.43;;;18.17;;
8421;SDS011;4248;48.196;10.924;2023-01-23T14:57:23;27.55;;;15.27;;
8421;SDS011;4248;48.196;10.924;2023-01-23T14:59:52;28.63;;;15.40;;
8421;SDS011;4248;48.196;10.924;2023-01-23T15:05:07;31.00;;;14.27;;
8421;SDS011;4248;48.196;10.924;2023-01-23T15:07:41;29.40;;;14.50;;
8421;SDS011;4248;48.196;10.924;2023-01-23T15:10:19;30.58;;;14.18;;
8421;SDS011;4248;48.196;10.924;2023-01-23T15:13:25;34.13;;;18.60;;
8421;SDS011;4248;48.196;10.924;2023-01-23T15:15:59;27.80;;;15.00;;
8421;SDS011;4248;48.196;10.924;2023-01-23T15:18:28;33.40;;;15.75;;
8421;SDS011;4248;48.196;10.924;2023-01-23T15:21:06;25.67;;;13.48;;
8421;SDS011;4248;48.196;10.924;2023-01-23T15:23:33;25.20;;;13.95;;
8421;SDS011;4248;48.196;10.924;2023-01-23T15:28:39;31.98;;;15.02;;
8421;SDS011;4248;48.196;10.924;2023-01-23T15:31:17;26.83;;;12.80;;
8421;SDS011;4248;48.196;10.924;2023-01-23T15:33:49;29.92;;;14.30;;
8421;SDS011;4248;48.196;10.924;2023-01-23T15:38:52;28.52;;;13.93;;
8421;SDS011;4248;48.196;10.924;2023-01-23T15:41:19;32.33;;;16.00;;
8421;SDS011;4248;48.196;10.924;2023-01-23T15:43:45;31.88;;;14.90;;
8421;SDS011;4248;48.196;10.924;2023-01-23T15:46:10;28.30;;;14.13;;
8421;SDS011;4248;48.196;10.924;2023-01-23T15:48:36;32.10;;;15.40;;
8421;SDS011;4248;48.196;10.924;2023-01-23T15:51:02;28.53;;;15.20;;
8421;SDS011;4248;48.196;10.924;2023-01-23T15:53:28;30.38;;;15.95;;
8421;SDS011;4248;48.196;10.924;2023-01-23T15:55:54;27.80;;;14.43;;
8421;SDS011;4248;48.196;10.924;2023-01-23T15:58:20;36.67;;;19.30;;
8421;SDS011;4248;48.196;10.924;2023-01-23T16:00:46;30.80;;;15.23;;
8421;SDS011;4248;48.196;10.924;2023-01-23T16:03:12;32.97;;;17.38;;
8421;SDS011;4248;48.196;10.924;2023-01-23T16:05:38;35.40;;;17.75;;
8421;SDS011;4248;48.196;10.924;2023-01-23T16:08:04;36.53;;;17.95;;
8421;SDS011;4248;48.196;10.924;2023-01-23T16:10:41;32.10;;;16.63;;
8421;SDS011;4248;48.196;10.924;2023-01-23T16:13:08;34.20;;;17.73;;
8421;SDS011;4248;48.196;10.924;2023-01-23T16:15:38;28.42;;;15.30;;
8421;SDS011;4248;48.196;10.924;2023-01-23T16:18:04;32.92;;;15.65;;
8421;SDS011;4248;48.196;10.924;2023-01-23T16:20:34;31.55;;;16.75;;
8421;SDS011;4248;48.196;10.924;2023-01-23T16:23:08;32.25;;;14.95;;
8421;SDS011;4248;48.196;10.924;2023-01-23T16:25:37;30.08;;;15.63;;
8421;SDS011;4248;48.196;10.924;2023-01-23T16:28:04;33.13;;;16.27;;
8421;SDS011;4248;48.196;10.924;2023-01-23T16:30:30;32.25;;;16.27;;
8421;SDS011;4248;48.196;10.924;2023-01-23T16:32:56;27.98;;;12.70;;
8421;SDS011;4248;48.196;10.924;2023-01-23T16:35:22;33.00;;;15.97;;
8421;SDS011;4248;48.196;10.924;2023-01-23T16:37:49;26.02;;;15.00;;
8421;SDS011;4248;48.196;10.924;2023-01-23T16:40:27;35.45;;;15.60;;
8421;SDS011;4248;48.196;10.924;2023-01-23T16:42:54;36.78;;;14.13;;
8421;SDS011;4248;48.196;10.924;2023-01-23T16:45:25;32.50;;;14.07;;
8421;SDS011;4248;48.196;10.924;2023-01-23T16:47:52;29.38;;;14.85;;
8421;SDS011;4248;48.196;10.924;2023-01-23T16:53:02;28.67;;;15.15;;
8421;SDS011;4248;48.196;10.924;2023-01-23T16:55:33;29.42;;;13.88;;
8421;SDS011;4248;48.196;10.924;2023-01-23T16:58:02;31.38;;;14.20;;
8421;SDS011;4248;48.196;10.924;2023-01-23T17:00:30;29.52;;;15.80;;
8421;SDS011;4248;48.196;10.924;2023-01-23T17:02:57;30.95;;;15.23;;
8421;SDS011;4248;48.196;10.924;2023-01-23T17:05:25;31.52;;;14.52;;